Time;durP1;ratioP1;P1;durP2;ratioP2;P2;SDS_P1;SDS_P2;PMS_P1;PMS_P2;Temp;Humidity;BMP_temperature;BMP_pressure;BME280_temperature;BME280_humidity;BME280_pressure;Samples;Min_cycle;Max_cycle;Signal;HPM_P1;HPM_P2
2022/10/09 00:00:06;;;;;;;1.20;1.00;;;;;;;10.89;61.07;102251.75;4905371;28;112236;-49
2022/10/09 00:02:31;;;;;;;3.23;1.13;;;;;;;10.86;60.83;102255.41;4906818;28;97542;-49
2022/10/09 00:04:56;;;;;;;1.10;1.00;;;;;;;10.84;60.93;102255.88;4905803;28;99927;-49
2022/10/09 00:07:22;;;;;;;3.80;1.13;;;;;;;10.82;60.91;102249.28;4904859;28;116130;-49
2022/10/09 00:09:47;;;;;;;3.20;1.30;;;;;;;10.80;61.05;102246.22;4907597;28;112993;-49
2022/10/09 00:12:12;;;;;;;1.43;1.30;;;;;;;10.80;61.13;102257.22;4906806;28;97050;-49
2022/10/09 00:14:38;;;;;;;3.07;0.97;;;;;;;10.78;60.96;102260.44;4908587;28;97548;-49
2022/10/09 00:17:03;;;;;;;2.20;1.00;;;;;;;10.76;61.11;102256.59;4900987;28;108350;-49
2022/10/09 00:19:28;;;;;;;2.70;1.00;;;;;;;10.75;61.17;102255.06;4904014;28;98528;-48
2022/10/09 00:21:54;;;;;;;3.27;1.10;;;;;;;10.72;61.06;102250.47;4905211;28;104146;-52
2022/10/09 00:24:19;;;;;;;7.10;1.20;;;;;;;10.72;61.01;102256.00;4905975;28;97387;-49
2022/10/09 00:26:47;;;;;;;2.33;1.03;;;;;;;10.69;60.96;102265.91;4905379;28;97528;-49
2022/10/09 00:29:12;;;;;;;3.03;1.17;;;;;;;10.67;61.18;102262.84;4907761;28;97219;-49
2022/10/09 00:31:37;;;;;;;3.07;1.20;;;;;;;10.66;61.06;102263.31;4909289;28;97205;-49
2022/10/09 00:34:03;;;;;;;2.17;1.17;;;;;;;10.65;60.97;102262.53;4904859;28;97395;-49
2022/10/09 00:36:28;;;;;;;2.00;1.10;;;;;;;10.62;61.05;102260.69;4901731;28;97443;-49
2022/10/09 00:38:54;;;;;;;4.20;1.03;;;;;;;10.59;61.03;102263.59;4904643;28;105054;-48
2022/10/09 00:41:24;;;;;;;1.03;0.80;;;;;;;10.55;61.07;102263.72;4907389;28;97057;-49
2022/10/09 00:43:55;;;;;;;2.60;1.03;;;;;;;10.51;61.08;102261.09;4906647;28;97374;-49
2022/10/09 00:46:33;;;;;;;1.00;1.00;;;;;;;10.53;60.95;102257.88;4905991;28;98514;-49
2022/10/09 00:49:04;;;;;;;0.90;0.70;;;;;;;10.46;60.72;102269.19;4909188;28;97110;-49
2022/10/09 00:51:31;;;;;;;1.67;0.70;;;;;;;10.39;60.79;102263.97;4905031;28;96827;-48
2022/10/09 00:53:57;;;;;;;1.97;1.30;;;;;;;10.37;60.66;102264.41;4908651;28;97067;-49
2022/10/09 00:56:24;;;;;;;6.37;0.77;;;;;;;10.31;60.58;102271.72;4908925;28;97507;-49
2022/10/09 00:58:53;;;;;;;3.03;0.90;;;;;;;10.27;60.79;102262.06;4908045;28;101809;-49
2022/10/09 01:01:19;;;;;;;1.10;0.90;;;;;;;10.24;60.67;102269.22;4905432;28;96895;-49
2022/10/09 01:03:44;;;;;;;1.73;0.77;;;;;;;10.21;60.75;102272.09;4905796;28;96850;-49
2022/10/09 01:06:29;;;;;;;7.20;1.03;;;;;;;10.16;60.79;102272.69;4906471;28;97227;-49
2022/10/09 01:09:19;;;;;;;1.73;1.20;;;;;;;10.14;60.90;102275.88;4902980;28;97441;-49
2022/10/09 01:12:02;;;;;;;0.90;0.90;;;;;;;10.08;60.92;102271.38;4906837;28;97368;-49
2022/10/09 01:14:33;;;;;;;1.83;1.23;;;;;;;10.03;60.92;102280.22;4907577;28;96849;-49
2022/10/09 01:17:33;;;;;;;1.80;1.00;;;;;;;9.97;60.96;102280.03;4907839;28;97590;-49
2022/10/09 01:20:23;;;;;;;2.63;1.23;;;;;;;9.88;61.08;102293.72;4893849;28;100759;-49
2022/10/09 01:23:26;;;;;;;1.43;1.27;;;;;;;9.84;61.06;102282.09;4905109;28;97273;-49
2022/10/09 01:26:42;;;;;;;3.40;1.20;;;;;;;9.74;61.06;102283.25;4904943;28;97160;-50
2022/10/09 01:29:09;;;;;;;0.97;0.87;;;;;;;9.72;60.75;102282.88;4857554;28;100725;-49
2022/10/09 01:31:41;;;;;;;3.47;1.10;;;;;;;9.64;60.74;102284.38;4863002;28;97569;-49
2022/10/09 01:34:07;;;;;;;3.17;1.03;;;;;;;9.59;60.80;102285.69;4890261;28;97257;-49
2022/10/09 01:36:35;;;;;;;1.00;0.90;;;;;;;9.59;60.81;102288.44;4907740;28;96893;-49
2022/10/09 01:39:03;;;;;;;3.37;0.73;;;;;;;9.55;60.76;102285.06;4905021;28;97448;-54
2022/10/09 01:41:29;;;;;;;3.83;0.90;;;;;;;9.51;60.98;102287.16;4906989;28;97228;-49
2022/10/09 01:43:55;;;;;;;3.33;0.97;;;;;;;9.48;60.99;102287.28;4906873;28;96785;-49
2022/10/09 01:46:22;;;;;;;7.03;1.10;;;;;;;9.45;61.04;102282.69;4908384;28;97244;-49
2022/10/09 01:48:56;;;;;;;3.03;0.57;;;;;;;9.46;60.97;102290.47;4906019;28;96834;-49
2022/10/09 01:51:26;;;;;;;3.70;0.90;;;;;;;9.44;60.92;102289.38;4906730;28;98419;-49
2022/10/09 01:53:56;;;;;;;2.60;0.90;;;;;;;9.41;61.07;102295.78;4909510;28;97012;-49
2022/10/09 01:56:25;;;;;;;1.43;0.67;;;;;;;9.37;60.90;102286.88;4905053;28;97203;-49
2022/10/09 01:59:05;;;;;;;1.00;0.90;;;;;;;9.32;61.05;102281.94;4907047;28;97952;-49
2022/10/09 02:01:35;;;;;;;1.70;0.60;;;;;;;9.29;60.95;102280.84;4908514;28;97061;-49
2022/10/09 02:04:04;;;;;;;2.67;1.10;;;;;;;9.29;61.09;102288.31;4902990;28;97278;-49
2022/10/09 02:06:30;;;;;;;1.20;0.70;;;;;;;9.28;60.92;102278.56;4904922;28;97077;-49
2022/10/09 02:08:57;;;;;;;2.70;1.10;;;;;;;9.24;60.88;102272.41;4910018;28;97724;-49
2022/10/09 02:11:26;;;;;;;5.17;0.77;;;;;;;9.19;60.82;102281.22;4904323;28;102976;-49
2022/10/09 02:13:54;;;;;;;1.10;0.60;;;;;;;9.14;60.97;102277.03;4906881;28;97404;-49
2022/10/09 02:16:33;;;;;;;5.03;1.13;;;;;;;9.13;61.04;102277.50;4912263;28;97065;-49
2022/10/09 02:19:12;;;;;;;0.80;0.60;;;;;;;9.11;60.97;102285.41;4903784;28;101960;-49
2022/10/09 02:21:43;;;;;;;4.10;0.63;;;;;;;9.06;60.92;102279.25;4906336;28;101614;-49
2022/10/09 02:24:13;;;;;;;3.47;1.20;;;;;;;9.04;61.01;102280.91;4908674;28;96737;-49
2022/10/09 02:26:39;;;;;;;2.17;0.70;;;;;;;9.02;60.70;102286.84;4907723;28;97052;-48
2022/10/09 02:29:05;;;;;;;2.20;0.70;;;;;;;9.01;60.53;102285.31;4903531;28;98038;-49
2022/10/09 02:31:33;;;;;;;2.10;1.00;;;;;;;8.99;60.83;102278.72;4903895;28;98374;-49
2022/10/09 02:34:11;;;;;;;0.70;0.63;;;;;;;8.97;61.10;102290.16;4907945;28;97875;-49
2022/10/09 02:36:38;;;;;;;0.80;0.80;;;;;;;8.94;60.89;102287.50;4907516;28;96776;-49
2022/10/09 02:39:05;;;;;;;1.13;1.03;;;;;;;8.90;60.96;102287.63;4906273;28;97868;-49
2022/10/09 02:41:31;;;;;;;0.97;0.60;;;;;;;8.86;60.60;102288.94;4907426;28;98328;-49
2022/10/09 02:43:57;;;;;;;0.77;0.60;;;;;;;8.80;60.82;102288.72;4908933;28;96919;-49
2022/10/09 02:46:23;;;;;;;1.47;0.80;;;;;;;8.77;60.63;102286.09;4905963;28;97105;-49
2022/10/09 02:48:48;;;;;;;1.10;0.80;;;;;;;8.74;60.79;102290.47;4906170;28;97120;-49
2022/10/09 02:51:14;;;;;;;0.60;0.60;;;;;;;8.74;60.74;102287.72;4905816;28;97526;-49
2022/10/09 02:53:39;;;;;;;7.23;0.97;;;;;;;8.70;60.75;102294.53;4909837;28;97327;-49
2022/10/09 02:56:05;;;;;;;1.20;0.73;;;;;;;8.68;60.90;102288.72;4910473;28;97401;-49
2022/10/09 02:58:32;;;;;;;1.63;0.63;;;;;;;8.66;60.89;102300.16;4910370;28;96788;-49
2022/10/09 03:00:57;;;;;;;5.87;1.30;;;;;;;8.61;60.82;102297.94;4912409;28;97116;-49
2022/10/09 03:03:23;;;;;;;1.57;0.80;;;;;;;8.62;60.68;102295.97;4910280;28;97140;-49
2022/10/09 03:05:58;;;;;;;1.40;0.63;;;;;;;8.60;60.95;102295.63;4903652;28;96928;-49
2022/10/09 03:08:24;;;;;;;1.73;0.53;;;;;;;8.58;60.46;102298.84;4910102;28;97081;-49
2022/10/09 03:10:49;;;;;;;5.47;1.10;;;;;;;8.54;60.68;102302.88;4910607;28;97123;-49
2022/10/09 03:13:14;;;;;;;2.20;0.80;;;;;;;8.52;60.93;102295.06;4909356;28;96833;-49
2022/10/09 03:15:40;;;;;;;1.57;0.80;;;;;;;8.51;60.81;102296.28;4903688;28;101816;-49
2022/10/09 03:18:05;;;;;;;1.93;0.60;;;;;;;8.50;60.92;102297.50;4906177;28;98427;-49
2022/10/09 03:20:31;;;;;;;0.80;0.67;;;;;;;8.47;60.91;102297.59;4907544;28;102663;-49
2022/10/09 03:22:56;;;;;;;2.90;1.10;;;;;;;8.47;61.15;102300.34;4910258;28;97049;-49
2022/10/09 03:25:22;;;;;;;2.80;0.73;;;;;;;8.46;61.09;102298.78;4905112;28;97805;-49
2022/10/09 03:27:47;;;;;;;0.80;0.80;;;;;;;8.45;61.17;102292.56;4905642;28;97650;-48
2022/10/09 03:30:13;;;;;;;3.70;1.20;;;;;;;8.43;61.06;102299.69;4904589;28;97126;-49
2022/10/09 03:32:39;;;;;;;2.63;0.90;;;;;;;8.40;60.99;102303.28;4910318;28;97382;-49
2022/10/09 03:35:04;;;;;;;0.60;0.50;;;;;;;8.41;60.81;102310.31;4907537;28;97166;-49
2022/10/09 03:37:30;;;;;;;0.80;0.80;;;;;;;8.35;60.73;102298.34;4907951;28;97855;-49
2022/10/09 03:39:56;;;;;;;0.83;0.83;;;;;;;8.35;60.75;102303.81;4909614;28;98209;-49
2022/10/09 03:42:21;;;;;;;5.90;0.77;;;;;;;8.30;61.06;102300.44;4908570;28;96640;-49
2022/10/09 03:44:46;;;;;;;2.33;1.00;;;;;;;8.30;60.78;102302.38;4911023;28;97104;-49
2022/10/09 03:47:12;;;;;;;2.00;0.77;;;;;;;8.29;60.66;102307.13;4906445;28;108425;-49
2022/10/09 03:49:37;;;;;;;1.37;0.60;;;;;;;8.26;60.74;102309.94;4910228;28;103263;-49
2022/10/09 03:52:02;;;;;;;1.17;0.80;;;;;;;8.23;60.71;102305.34;4908052;28;97506;-49
2022/10/09 03:54:28;;;;;;;4.87;1.10;;;;;;;8.20;60.94;102312.44;4907366;28;97582;-49
2022/10/09 03:56:53;;;;;;;2.20;0.90;;;;;;;8.21;61.17;102313.97;4909184;28;100315;-49
2022/10/09 03:59:18;;;;;;;3.20;1.00;;;;;;;8.19;61.06;102316.38;4906770;28;115343;-49
2022/10/09 04:01:44;;;;;;;1.50;0.77;;;;;;;8.18;61.12;102336.78;4904575;28;97162;-49
2022/10/09 04:04:09;;;;;;;4.37;1.20;;;;;;;8.16;60.82;102320.00;4905958;28;97201;-49
2022/10/09 04:06:34;;;;;;;1.50;0.90;;;;;;;8.13;60.78;102318.13;4908275;28;115225;-49
2022/10/09 04:09:00;;;;;;;3.17;0.70;;;;;;;8.09;60.83;102313.94;4905970;28;98288;-49
2022/10/09 04:11:25;;;;;;;0.80;0.70;;;;;;;8.05;60.74;102316.78;4904174;28;96804;-49
2022/10/09 04:13:51;;;;;;;0.90;0.67;;;;;;;7.99;60.54;102312.28;4906674;28;97649;-50
2022/10/09 04:16:16;;;;;;;2.93;0.60;;;;;;;7.90;60.71;102320.34;4908258;28;97900;-49
2022/10/09 04:18:43;;;;;;;0.70;0.70;;;;;;;7.86;60.71;102323.19;4906980;28;97098;-49
2022/10/09 04:21:08;;;;;;;1.57;0.73;;;;;;;7.87;60.72;102321.22;4905747;28;96895;-49
2022/10/09 04:23:34;;;;;;;3.27;0.90;;;;;;;7.85;60.81;102327.13;4905075;28;97260;-49
2022/10/09 04:26:00;;;;;;;1.43;0.70;;;;;;;7.83;60.38;102326.03;4905405;28;97003;-49
2022/10/09 04:28:26;;;;;;;1.17;0.77;;;;;;;7.80;60.66;102326.91;4908524;28;97638;-49
2022/10/09 04:30:52;;;;;;;0.83;0.70;;;;;;;7.74;60.29;102334.84;4908863;28;97419;-49
2022/10/09 04:33:18;;;;;;;1.17;0.70;;;;;;;7.71;60.91;102330.22;4906756;28;103913;-49
2022/10/09 04:35:45;;;;;;;1.10;0.73;;;;;;;7.69;60.62;102337.38;4906303;28;97450;-49
2022/10/09 04:38:10;;;;;;;6.20;0.90;;;;;;;7.68;60.52;102336.59;4907500;28;97022;-49
2022/10/09 04:40:36;;;;;;;0.87;0.73;;;;;;;7.63;60.50;102328.09;4908124;28;97032;-49
2022/10/09 04:43:02;;;;;;;2.47;1.30;;;;;;;7.52;60.80;102342.09;4902402;28;98922;-49
2022/10/09 04:45:27;;;;;;;2.87;0.70;;;;;;;7.51;60.68;102329.59;4909133;28;97482;-49
2022/10/09 04:47:52;;;;;;;1.33;0.60;;;;;;;7.50;61.11;102319.84;4906247;28;97338;-49
2022/10/09 04:50:18;;;;;;;1.13;0.60;;;;;;;7.48;60.70;102320.28;4907964;28;101096;-50
2022/10/09 04:52:43;;;;;;;1.97;1.10;;;;;;;7.45;60.75;102321.13;4908266;28;97083;-49
2022/10/09 04:55:08;;;;;;;0.93;0.50;;;;;;;7.45;61.03;102310.16;4909344;28;97249;-49
2022/10/09 04:57:34;;;;;;;2.00;0.70;;;;;;;7.45;60.68;102318.38;4901675;28;114616;-49
2022/10/09 04:59:59;;;;;;;0.83;0.67;;;;;;;7.42;60.92;102313.78;4907721;28;97146;-49
2022/10/09 05:02:24;;;;;;;2.93;0.93;;;;;;;7.40;60.82;102315.41;4906419;28;105955;-49
2022/10/09 05:04:50;;;;;;;1.33;0.77;;;;;;;7.40;60.75;102313.41;4906348;28;97437;-49
2022/10/09 05:07:15;;;;;;;1.47;0.93;;;;;;;7.38;60.80;102315.81;4903038;28;98157;-49
2022/10/09 05:09:40;;;;;;;1.83;0.80;;;;;;;7.35;60.34;102327.66;4903490;28;97529;-49
2022/10/09 05:12:06;;;;;;;1.33;0.70;;;;;;;7.34;60.51;102322.56;4907305;28;98148;-49
2022/10/09 05:14:31;;;;;;;4.00;0.90;;;;;;;7.31;60.70;102323.44;4905234;28;103356;-49
2022/10/09 05:17:01;;;;;;;1.13;0.67;;;;;;;7.29;60.68;102326.63;4911852;28;106671;-49
2022/10/09 05:19:27;;;;;;;3.20;0.73;;;;;;;7.30;60.56;102327.38;4904853;28;97155;-49
2022/10/09 05:21:52;;;;;;;3.87;1.10;;;;;;;7.26;60.79;102321.22;4906257;28;96797;-49
2022/10/09 05:24:17;;;;;;;2.63;0.93;;;;;;;7.24;60.94;102323.63;4908101;28;119002;-49
2022/10/09 05:26:43;;;;;;;2.50;0.90;;;;;;;7.23;60.95;102328.31;4907279;28;97055;-49
2022/10/09 05:29:08;;;;;;;0.80;0.80;;;;;;;7.22;60.44;102332.28;4902409;28;97046;-49
2022/10/09 05:31:33;;;;;;;2.53;0.70;;;;;;;7.19;60.42;102324.91;4905056;28;97151;-49
2022/10/09 05:34:00;;;;;;;1.83;0.87;;;;;;;7.16;60.50;102333.97;4906706;28;98349;-49
2022/10/09 05:36:26;;;;;;;2.40;1.10;;;;;;;7.13;60.94;102328.56;4906854;28;96860;-49
2022/10/09 05:38:51;;;;;;;1.50;0.73;;;;;;;7.13;60.66;102326.63;4906184;28;97452;-49
2022/10/09 05:41:18;;;;;;;0.90;0.80;;;;;;;7.09;60.58;102336.88;4907975;28;98222;-49
2022/10/09 05:43:46;;;;;;;1.00;0.87;;;;;;;7.08;61.08;102338.06;4905215;28;97553;-49
2022/10/09 05:46:22;;;;;;;0.73;0.73;;;;;;;7.11;60.66;102336.44;4907547;28;97286;-49
2022/10/09 05:48:53;;;;;;;1.00;0.77;;;;;;;7.07;60.81;102333.81;4904539;28;99573;-49
2022/10/09 05:51:25;;;;;;;1.60;0.60;;;;;;;7.04;60.70;102331.91;4907975;28;97349;-49
2022/10/09 05:53:51;;;;;;;9.90;1.00;;;;;;;7.02;60.88;102328.06;4905303;28;98118;-49
2022/10/09 05:56:20;;;;;;;1.97;0.80;;;;;;;7.03;60.78;102330.38;4906467;28;97243;-49
2022/10/09 05:58:51;;;;;;;1.60;0.80;;;;;;;7.01;60.64;102340.97;4905258;28;100501;-49
2022/10/09 06:01:18;;;;;;;2.03;0.90;;;;;;;6.99;60.81;102335.16;4905347;28;98387;-49
2022/10/09 06:03:48;;;;;;;1.83;0.77;;;;;;;6.99;61.13;102326.94;4902015;28;97870;-49
2022/10/09 06:06:14;;;;;;;1.10;0.60;;;;;;;6.99;60.98;102335.16;4904208;28;96980;-49
2022/10/09 06:08:39;;;;;;;1.97;0.97;;;;;;;7.01;60.82;102334.75;4903712;28;97239;-49
2022/10/09 06:11:22;;;;;;;2.30;0.77;;;;;;;7.00;60.86;102341.41;4905519;28;110861;-49
2022/10/09 06:13:48;;;;;;;2.80;0.90;;;;;;;6.97;60.63;102345.75;4902121;28;97716;-49
2022/10/09 06:16:15;;;;;;;1.10;1.00;;;;;;;6.96;60.94;102344.22;4901810;28;98141;-49
2022/10/09 06:18:42;;;;;;;1.57;0.90;;;;;;;6.96;60.76;102359.88;4904648;28;97303;-49
2022/10/09 06:21:07;;;;;;;0.90;0.80;;;;;;;6.96;60.95;102352.44;4905722;28;97210;-50
2022/10/09 06:23:33;;;;;;;1.50;0.80;;;;;;;6.96;61.03;102346.19;4904551;28;97389;-49
2022/10/09 06:26:02;;;;;;;6.20;0.93;;;;;;;6.96;60.51;102357.91;4905599;28;97885;-49
2022/10/09 06:28:28;;;;;;;2.43;0.80;;;;;;;6.96;60.74;102351.66;4900205;28;97784;-49
2022/10/09 06:31:04;;;;;;;1.73;1.10;;;;;;;6.95;61.12;102356.34;4903366;28;97096;-49
2022/10/09 06:33:31;;;;;;;1.57;0.73;;;;;;;6.97;60.76;102359.44;4905332;28;97169;-49
2022/10/09 06:36:02;;;;;;;1.50;0.83;;;;;;;6.98;60.53;102361.00;4903506;28;97214;-49
2022/10/09 06:38:27;;;;;;;1.17;0.67;;;;;;;6.97;60.47;102353.22;4904807;28;97117;-49
2022/10/09 06:40:52;;;;;;;4.07;2.60;;;;;;;6.97;61.13;102361.41;4904714;28;97202;-49
2022/10/09 06:43:18;;;;;;;2.43;1.00;;;;;;;7.00;60.85;102357.81;4903622;28;112828;-49
2022/10/09 06:45:43;;;;;;;2.60;1.20;;;;;;;7.01;61.19;102360.13;4902898;28;108686;-49
2022/10/09 06:48:08;;;;;;;0.70;0.70;;;;;;;7.05;61.10;102368.25;4904091;28;106396;-49
2022/10/09 06:50:35;;;;;;;2.30;0.80;;;;;;;7.09;61.07;102360.75;4905481;28;97520;-49
2022/10/09 06:53:02;;;;;;;1.10;0.80;;;;;;;7.13;61.34;102367.66;4905599;28;97357;-49
2022/10/09 06:55:27;;;;;;;2.53;0.80;;;;;;;7.13;61.25;102362.19;4906872;28;97162;-49
2022/10/09 06:57:52;;;;;;;1.93;1.20;;;;;;;7.19;60.74;102359.72;4903732;28;105147;-49
2022/10/09 07:00:18;;;;;;;1.07;0.70;;;;;;;7.22;61.32;102364.34;4904277;28;106959;-49
2022/10/09 07:02:43;;;;;;;3.07;1.40;;;;;;;7.24;61.03;102356.47;4902161;28;111603;-50
2022/10/09 07:05:08;;;;;;;3.30;1.10;;;;;;;7.29;61.25;102364.94;4906381;28;97241;-49
2022/10/09 07:07:37;;;;;;;1.80;0.90;;;;;;;7.34;61.26;102360.91;4903755;28;99082;-49
2022/10/09 07:10:03;;;;;;;1.43;0.70;;;;;;;7.38;60.84;102356.13;4904075;28;96949;-49
2022/10/09 07:12:28;;;;;;;2.93;0.80;;;;;;;7.43;61.25;102361.84;4902947;28;97913;-49
2022/10/09 07:14:54;;;;;;;0.70;0.50;;;;;;;7.46;61.28;102361.00;4905540;28;115848;-51
2022/10/09 07:17:19;;;;;;;1.03;0.83;;;;;;;7.47;61.42;102368.00;4905653;28;97427;-49
2022/10/09 07:19:44;;;;;;;6.67;1.10;;;;;;;7.53;61.29;102371.78;4900379;28;104070;-49
2022/10/09 07:22:10;;;;;;;1.63;0.60;;;;;;;7.56;61.27;102368.19;4906039;28;97326;-49
2022/10/09 07:24:36;;;;;;;1.43;0.77;;;;;;;7.58;61.00;102376.75;4903765;28;97510;-49
2022/10/09 07:27:01;;;;;;;1.83;0.70;;;;;;;7.63;61.24;102369.97;4905825;28;96868;-49
2022/10/09 07:29:26;;;;;;;1.33;0.93;;;;;;;7.68;61.24;102371.44;4900888;28;96998;-49
2022/10/09 07:31:52;;;;;;;1.57;0.80;;;;;;;7.72;61.44;102374.84;4904125;28;98583;-49
2022/10/09 07:34:17;;;;;;;2.30;0.63;;;;;;;7.75;61.31;102380.25;4900331;28;115007;-49
2022/10/09 07:36:42;;;;;;;0.60;0.60;;;;;;;7.82;61.31;102382.03;4905232;28;97113;-49
2022/10/09 07:39:08;;;;;;;5.60;0.60;;;;;;;7.87;61.48;102392.44;4904478;28;96763;-49
2022/10/09 07:41:34;;;;;;;0.87;0.80;;;;;;;7.94;61.32;102381.31;4908678;28;97315;-49
2022/10/09 07:44:00;;;;;;;1.23;0.90;;;;;;;7.97;61.54;102386.69;4908956;28;99058;-49
2022/10/09 07:46:26;;;;;;;4.00;0.97;;;;;;;8.05;61.45;102387.28;4907574;28;97021;-49
2022/10/09 07:48:51;;;;;;;2.03;1.10;;;;;;;8.08;61.30;102394.66;4909225;28;97570;-49
2022/10/09 07:51:18;;;;;;;0.50;0.50;;;;;;;8.15;61.58;102395.22;4907349;28;97469;-49
2022/10/09 07:53:44;;;;;;;0.60;0.50;;;;;;;8.24;61.80;102389.88;4909961;28;97316;-49
2022/10/09 07:56:18;;;;;;;0.93;0.77;;;;;;;8.34;61.96;102387.31;4909382;28;97827;-49
2022/10/09 07:59:06;;;;;;;1.20;1.00;;;;;;;8.43;62.46;102398.44;4907190;28;98312;-49
2022/10/09 08:01:33;;;;;;;1.47;0.87;;;;;;;8.51;61.65;102397.78;4905044;28;100432;-49
2022/10/09 08:03:59;;;;;;;1.20;0.70;;;;;;;8.59;61.59;102390.88;4906393;28;98011;-49
2022/10/09 08:06:25;;;;;;;3.03;0.70;;;;;;;8.67;61.52;102391.47;4905560;28;98067;-49
2022/10/09 08:08:52;;;;;;;1.00;0.60;;;;;;;8.76;61.75;102394.31;4905563;28;97598;-49
2022/10/09 08:11:19;;;;;;;1.00;0.90;;;;;;;8.82;62.00;102385.09;4906577;28;97095;-49
2022/10/09 08:13:46;;;;;;;3.23;0.67;;;;;;;8.90;61.90;102391.16;4905896;28;97406;-54
2022/10/09 08:16:12;;;;;;;2.67;0.60;;;;;;;8.97;61.90;102397.22;4904750;28;96716;-49
2022/10/09 08:18:38;;;;;;;2.10;0.80;;;;;;;9.06;62.06;102400.03;4905639;28;97131;-49
2022/10/09 08:21:09;;;;;;;3.13;0.93;;;;;;;9.17;62.20;102398.97;4894203;28;99950;-49
2022/10/09 08:23:35;;;;;;;4.90;1.10;;;;;;;9.26;62.20;102407.31;4904052;28;98158;-49
2022/10/09 08:26:01;;;;;;;1.30;1.23;;;;;;;9.36;62.22;102409.72;4904037;28;97223;-49
2022/10/09 08:28:26;;;;;;;5.33;1.27;;;;;;;9.47;62.18;102401.13;4908753;28;99846;-49
2022/10/09 08:30:52;;;;;;;0.90;0.90;;;;;;;9.57;62.20;102400.00;4901625;28;103691;-49
2022/10/09 08:33:20;;;;;;;3.23;0.90;;;;;;;9.67;62.26;102407.94;4896473;28;98857;-49
2022/10/09 08:35:47;;;;;;;3.77;1.23;;;;;;;9.78;62.24;102407.56;4905414;28;97596;-49
2022/10/09 08:38:13;;;;;;;4.00;0.80;;;;;;;9.88;62.18;102403.69;4904322;28;97291;-49
2022/10/09 08:40:41;;;;;;;6.57;1.07;;;;;;;9.99;62.48;102401.34;4906796;28;97885;-49
2022/10/09 08:43:13;;;;;;;5.90;0.97;;;;;;;10.12;62.54;102407.59;4900900;28;96922;-49
2022/10/09 08:45:41;;;;;;;2.07;1.20;;;;;;;10.23;62.57;102404.44;4907655;28;96752;-49
2022/10/09 08:48:13;;;;;;;1.50;0.73;;;;;;;10.36;62.85;102410.66;4907195;28;97320;-49
2022/10/09 08:50:45;;;;;;;2.57;1.13;;;;;;;10.46;62.70;102402.03;4906198;28;97586;-49
2022/10/09 08:53:22;;;;;;;3.13;1.30;;;;;;;10.62;63.16;102400.28;4907448;28;97067;-49
2022/10/09 08:56:00;;;;;;;1.90;1.23;;;;;;;10.74;62.90;102397.47;4907499;28;96719;-49
2022/10/09 08:58:35;;;;;;;5.60;1.20;;;;;;;10.91;63.12;102393.28;4907859;28;97466;-49
2022/10/09 09:01:09;;;;;;;6.40;1.43;;;;;;;11.05;63.12;102394.72;4905227;28;97389;-51
2022/10/09 09:03:37;;;;;;;8.03;1.70;;;;;;;11.20;62.99;102384.66;4903348;28;96853;-50
2022/10/09 09:06:10;;;;;;;6.47;2.10;;;;;;;11.34;63.38;102378.56;4906200;28;97210;-50
2022/10/09 09:08:44;;;;;;;2.37;1.50;;;;;;;11.50;63.60;102383.06;4907438;28;97750;-49
2022/10/09 09:11:32;;;;;;;1.80;1.07;;;;;;;11.65;64.63;102389.50;4904490;28;97069;-50
2022/10/09 09:14:45;;;;;;;3.57;1.17;;;;;;;11.81;63.92;102378.22;4908438;28;98056;-49
2022/10/09 09:17:22;;;;;;;3.07;1.37;;;;;;;11.99;63.52;102381.75;4864060;28;96861;-50
2022/10/09 09:19:56;;;;;;;3.90;1.60;;;;;;;12.20;63.65;102382.81;4866793;28;97223;-49
2022/10/09 09:22:23;;;;;;;5.33;1.87;;;;;;;12.39;63.57;102383.56;4888139;28;98139;-49
2022/10/09 09:24:56;;;;;;;6.73;1.73;;;;;;;12.57;63.65;102387.06;4904106;28;97151;-49
2022/10/09 09:27:41;;;;;;;2.43;0.97;;;;;;;12.78;64.76;102377.78;4904933;28;97680;-49
2022/10/09 09:30:29;;;;;;;3.47;1.23;;;;;;;12.94;64.64;102384.19;4907258;28;97295;-49
2022/10/09 09:33:09;;;;;;;4.13;1.40;;;;;;;13.06;64.45;102380.50;4902316;28;100459;-50
2022/10/09 09:36:13;;;;;;;2.10;1.07;;;;;;;13.25;64.85;102384.69;4905885;28;97872;-49
2022/10/09 09:38:38;;;;;;;2.00;0.83;;;;;;;13.45;63.41;102373.84;4911035;28;96728;-49
2022/10/09 09:41:04;;;;;;;4.27;1.30;;;;;;;13.63;63.51;102375.72;4902232;28;97724;-50
2022/10/09 09:43:30;;;;;;;2.10;0.90;;;;;;;13.78;63.44;102371.00;4904349;28;97635;-49
2022/10/09 09:45:58;;;;;;;2.30;1.07;;;;;;;13.94;63.42;102376.84;4898196;28;97118;-49
2022/10/09 09:48:30;;;;;;;4.67;1.10;;;;;;;14.09;63.21;102371.34;4899131;28;97518;-49
2022/10/09 09:50:55;;;;;;;1.30;1.10;;;;;;;14.24;63.21;102366.59;4905854;28;97016;-49
2022/10/09 09:53:39;;;;;;;3.17;0.90;;;;;;;14.40;63.65;102373.69;4899240;28;97430;-49
2022/10/09 09:56:06;;;;;;;0.87;0.87;;;;;;;14.51;62.83;102368.34;4904488;28;97402;-49
2022/10/09 09:58:46;;;;;;;3.97;0.90;;;;;;;14.58;62.73;102365.19;4905119;28;97892;-49
2022/10/09 10:01:25;;;;;;;4.90;1.10;;;;;;;14.71;62.78;102360.13;4905567;28;97629;-49
2022/10/09 10:03:53;;;;;;;3.00;0.70;;;;;;;14.73;62.29;102355.63;4903368;28;100292;-51
2022/10/09 10:06:24;;;;;;;1.53;1.27;;;;;;;14.82;62.30;102349.22;4906810;28;97917;-49
2022/10/09 10:09:16;;;;;;;2.20;0.87;;;;;;;14.87;62.40;102345.78;4905831;28;96929;-49
2022/10/09 10:12:15;;;;;;;7.90;1.20;;;;;;;14.97;62.46;102347.19;4905319;28;97018;-49
2022/10/09 10:14:49;;;;;;;1.93;0.63;;;;;;;15.13;62.14;102335.56;4903875;28;102061;-48
2022/10/09 10:17:25;;;;;;;2.50;0.70;;;;;;;15.25;61.88;102337.25;4907019;28;97183;-49
2022/10/09 10:19:50;;;;;;;1.90;1.00;;;;;;;15.35;61.58;102335.09;4902716;28;97333;-49
2022/10/09 10:22:25;;;;;;;1.70;1.00;;;;;;;15.50;60.90;102330.28;4909224;28;97200;-48
2022/10/09 10:24:53;;;;;;;3.60;1.13;;;;;;;15.54;61.04;102336.38;4904815;28;98619;-49
2022/10/09 10:27:39;;;;;;;3.00;1.00;;;;;;;15.66;60.92;102358.22;4901146;28;97268;-49
2022/10/09 10:30:11;;;;;;;5.83;0.80;;;;;;;15.82;61.10;102329.16;4903827;28;96777;-49
2022/10/09 10:32:59;;;;;;;1.47;0.70;;;;;;;15.97;60.44;102324.25;4905566;28;97451;-49
2022/10/09 10:35:43;;;;;;;5.77;0.80;;;;;;;16.12;60.18;102324.16;4896758;28;100563;-49
2022/10/09 10:38:26;;;;;;;4.33;1.37;;;;;;;16.22;59.79;102328.28;4906840;28;96872;-49
2022/10/09 10:41:32;;;;;;;2.43;0.83;;;;;;;16.24;59.83;102323.00;4901142;28;97206;-49
2022/10/09 10:44:06;;;;;;;2.20;0.83;;;;;;;16.27;60.07;102317.22;4905509;28;97044;-49
2022/10/09 10:46:51;;;;;;;1.50;0.73;;;;;;;16.29;59.27;102325.09;4901281;28;97882;-49
2022/10/09 10:49:19;;;;;;;2.53;1.10;;;;;;;16.29;59.81;102322.31;4902896;28;98674;-49
2022/10/09 10:52:04;;;;;;;5.90;1.30;;;;;;;16.31;59.39;102317.78;4902814;28;97146;-49
2022/10/09 10:54:33;;;;;;;2.00;0.90;;;;;;;16.32;60.00;102308.19;4901556;28;97232;-49
2022/10/09 10:57:32;;;;;;;1.40;1.00;;;;;;;16.35;59.30;102314.78;4904498;28;97283;-49
2022/10/09 11:00:04;;;;;;;2.30;0.80;;;;;;;16.31;59.81;102308.69;4903375;28;101563;-49
2022/10/09 11:02:57;;;;;;;4.10;1.33;;;;;;;16.31;59.63;102305.91;4904241;28;96995;-49
2022/10/09 11:05:25;;;;;;;2.80;0.90;;;;;;;16.36;59.91;102305.16;4904038;28;97090;-49
2022/10/09 11:08:20;;;;;;;0.90;0.70;;;;;;;16.44;59.31;102300.72;4905310;28;98798;-50
2022/10/09 11:11:03;;;;;;;6.77;0.50;;;;;;;16.60;59.36;102302.13;4907836;28;101846;-49
2022/10/09 11:13:47;;;;;;;5.03;1.10;;;;;;;16.80;58.44;102293.66;4906031;28;96886;-48
2022/10/09 11:16:25;;;;;;;4.37;0.80;;;;;;;16.97;57.66;102286.19;4905435;28;97301;-49
2022/10/09 11:19:30;;;;;;;1.70;1.00;;;;;;;16.94;57.51;102289.97;4909738;28;100610;-49
2022/10/09 11:22:08;;;;;;;1.90;0.77;;;;;;;17.11;57.79;102293.59;4886806;28;101664;-49
2022/10/09 11:24:52;;;;;;;2.58;0.90;;;;;;;17.40;57.36;102290.44;4904240;28;97651;-50
2022/10/09 11:27:19;;;;;;;1.70;0.70;;;;;;;17.60;57.38;102281.94;4904937;28;97173;-46
2022/10/09 11:30:13;;;;;;;2.97;0.60;;;;;;;17.69;55.23;102281.69;4909382;28;97020;-49
2022/10/09 11:32:41;;;;;;;2.60;0.90;;;;;;;17.83;56.85;102274.38;4908910;28;102878;-49
2022/10/09 11:35:19;;;;;;;2.97;1.10;;;;;;;18.05;55.01;102268.84;4905477;28;96993;-49
2022/10/09 11:37:54;;;;;;;4.07;0.80;;;;;;;18.25;55.35;102267.84;4905891;28;97468;-47
2022/10/09 11:40:23;;;;;;;4.97;0.93;;;;;;;18.38;55.60;102265.31;4907301;28;97095;-49
2022/10/09 11:43:24;;;;;;;1.63;0.63;;;;;;;18.44;52.92;102260.47;4902774;28;97359;-50